Time;durP1;ratioP1;P1;durP2;ratioP2;P2;SDS_P1;SDS_P2;PMS_P1;PMS_P2;Temp;Humidity;BMP_temperature;BMP_pressure;BME280_temperature;BME280_humidity;BME280_pressure;Samples;Min_cycle;Max_cycle;Signal;HPM_P1;HPM_P2
2021/03/12 00:02:10;;;;;;;0.52;0.45;;;5.40;99.90;;;;;;5078458;28;20044;-73
2021/03/12 00:04:36;;;;;;;2.60;1.10;;;5.40;99.90;;;;;;5083713;28;20031;-72
2021/03/12 00:07:02;;;;;;;1.75;0.60;;;5.40;99.90;;;;;;5084716;28;20020;-71
2021/03/12 00:09:28;;;;;;;4.15;0.65;;;5.40;99.90;;;;;;5084372;28;20052;-72
2021/03/12 00:11:54;;;;;;;0.70;0.43;;;5.40;99.90;;;;;;5066819;28;20081;-73
2021/03/12 00:14:19;;;;;;;0.47;0.25;;;5.30;99.90;;;;;;5064545;28;20025;-73
2021/03/12 00:16:45;;;;;;;0.40;0.40;;;5.30;99.90;;;;;;5064629;28;20025;-74
2021/03/12 00:19:11;;;;;;;0.55;0.45;;;5.30;99.90;;;;;;5064634;28;20088;-72
2021/03/12 00:21:37;;;;;;;7.28;0.90;;;5.20;99.90;;;;;;5079880;28;20021;-73
2021/03/12 00:24:03;;;;;;;0.70;0.50;;;5.20;99.90;;;;;;5079947;28;20377;-72
2021/03/12 00:26:29;;;;;;;2.58;0.50;;;5.20;99.90;;;;;;5064418;28;20099;-72
2021/03/12 00:28:54;;;;;;;5.50;0.63;;;5.10;99.90;;;;;;5064488;28;20025;-72
2021/03/12 00:31:20;;;;;;;5.25;1.08;;;5.10;99.90;;;;;;5063117;28;20041;-72
2021/03/12 00:33:46;;;;;;;1.17;0.60;;;5.10;99.90;;;;;;5064735;28;20037;-73
2021/03/12 00:36:12;;;;;;;0.22;0.20;;;5.10;99.90;;;;;;5064733;28;20028;-74
2021/03/12 00:38:39;;;;;;;0.63;0.30;;;5.10;99.90;;;;;;5080320;28;20388;-71
2021/03/12 00:41:07;;;;;;;1.10;0.63;;;5.10;99.90;;;;;;5083516;28;20104;-73
2021/03/12 00:43:34;;;;;;;0.98;0.38;;;5.10;99.90;;;;;;5084669;28;20017;-71
2021/03/12 00:46:02;;;;;;;7.50;0.65;;;5.10;99.90;;;;;;5084534;28;20029;-70
2021/03/12 00:48:27;;;;;;;2.15;0.47;;;5.10;99.90;;;;;;5084394;28;20024;-73
2021/03/12 00:50:54;;;;;;;0.25;0.25;;;5.10;99.90;;;;;;5084229;28;20044;-73
2021/03/12 00:53:20;;;;;;;4.85;1.05;;;5.10;99.90;;;;;;5082784;28;20059;-72
2021/03/12 00:55:46;;;;;;;5.57;1.58;;;5.00;99.90;;;;;;5082783;28;20028;-74
2021/03/12 00:58:16;;;;;;;1.80;0.93;;;5.00;99.90;;;;;;5081557;28;20024;-73
2021/03/12 01:00:41;;;;;;;2.78;0.68;;;5.00;99.90;;;;;;5081678;28;20036;-72
2021/03/12 01:03:13;;;;;;;2.47;0.82;;;5.00;99.90;;;;;;5082766;28;20064;-73
2021/03/12 01:05:40;;;;;;;1.08;0.50;;;5.00;99.90;;;;;;5071145;28;20052;-73
2021/03/12 01:08:07;;;;;;;4.15;0.80;;;5.00;99.90;;;;;;5075537;28;20074;-73
2021/03/12 01:10:34;;;;;;;1.42;0.70;;;5.00;99.90;;;;;;5082192;28;20102;-73
2021/03/12 01:13:00;;;;;;;5.45;1.17;;;4.90;99.90;;;;;;5084872;28;20032;-73
2021/03/12 01:15:27;;;;;;;3.28;1.30;;;5.00;99.90;;;;;;5087882;28;20032;-74
2021/03/12 01:17:53;;;;;;;2.92;1.17;;;5.00;99.90;;;;;;5086405;28;20040;-72
2021/03/12 01:20:25;;;;;;;7.88;1.25;;;4.90;99.90;;;;;;5086362;28;20033;-73
2021/03/12 01:22:53;;;;;;;1.95;0.50;;;4.90;99.90;;;;;;5087629;28;20035;-72
2021/03/12 01:25:21;;;;;;;5.72;1.27;;;4.90;99.90;;;;;;5087757;28;20017;-73
2021/03/12 01:27:47;;;;;;;1.90;1.05;;;4.90;99.90;;;;;;5087534;28;20047;-74
2021/03/12 01:30:22;;;;;;;14.27;1.70;;;5.00;99.90;;;;;;5087453;28;20047;-74
2021/03/12 01:32:48;;;;;;;5.13;0.95;;;5.00;99.90;;;;;;5087664;28;20028;-73
2021/03/12 01:35:15;;;;;;;7.40;2.28;;;5.00;99.90;;;;;;5087562;28;20056;-73
2021/03/12 01:37:40;;;;;;;12.30;1.85;;;5.10;99.90;;;;;;5087515;28;20024;-73
2021/03/12 01:40:09;;;;;;;3.40;1.10;;;5.20;99.90;;;;;;5086266;28;20060;-73
2021/03/12 01:42:35;;;;;;;17.38;1.88;;;5.20;99.90;;;;;;5087532;28;20044;-73
2021/03/12 01:45:04;;;;;;;3.10;1.08;;;5.20;99.90;;;;;;5087287;28;20029;-72
2021/03/12 01:47:29;;;;;;;9.90;1.35;;;5.20;99.90;;;;;;5085863;28;20062;-73
2021/03/12 01:49:55;;;;;;;5.10;1.25;;;5.30;99.90;;;;;;5085746;28;20038;-73
2021/03/12 01:52:21;;;;;;;13.35;1.95;;;5.40;99.90;;;;;;5087069;28;20054;-73
2021/03/12 01:54:46;;;;;;;7.82;1.27;;;5.40;99.90;;;;;;5085975;28;20036;-73
2021/03/12 01:57:12;;;;;;;6.07;1.27;;;5.40;99.90;;;;;;5087223;28;20036;-73
2021/03/12 01:59:38;;;;;;;1.73;1.08;;;5.40;99.90;;;;;;5087327;28;20029;-72
2021/03/12 02:02:03;;;;;;;2.15;0.93;;;5.40;99.90;;;;;;5087231;28;20138;-72
2021/03/12 02:04:29;;;;;;;1.90;1.05;;;5.50;99.90;;;;;;5085659;28;20135;-74
2021/03/12 02:06:55;;;;;;;11.20;1.73;;;5.50;99.90;;;;;;5086691;28;20051;-72
2021/03/12 02:09:21;;;;;;;14.57;2.13;;;5.50;99.90;;;;;;5086571;28;20070;-73
2021/03/12 02:11:58;;;;;;;10.35;2.05;;;5.60;99.90;;;;;;5085441;28;20040;-72
2021/03/12 02:14:42;;;;;;;9.77;2.17;;;5.60;99.90;;;;;;5086740;28;20389;-72
2021/03/12 02:17:23;;;;;;;4.13;1.45;;;5.60;99.90;;;;;;5086753;28;20029;-74
2021/03/12 02:20:03;;;;;;;4.57;1.88;;;5.70;99.90;;;;;;5086664;28;20031;-73
2021/03/12 02:22:33;;;;;;;9.55;1.23;;;5.70;99.90;;;;;;5085248;28;20540;-72
2021/03/12 02:25:07;;;;;;;3.60;1.48;;;5.70;99.90;;;;;;5086450;28;20031;-72
2021/03/12 02:27:33;;;;;;;;;;;5.70;99.90;;;;;;5086967;28;20033;-72
2021/03/12 02:30:01;;;;;;;5.93;1.80;;;5.80;99.90;;;;;;5086302;28;19957;-73
2021/03/12 02:32:36;;;;;;;3.95;1.83;;;5.80;99.90;;;;;;5085009;28;20036;-72
2021/03/12 02:35:06;;;;;;;2.03;0.57;;;5.80;99.90;;;;;;5086289;28;20110;-74
2021/03/12 02:37:32;;;;;;;1.98;1.08;;;5.80;99.90;;;;;;5086359;28;20097;-75
2021/03/12 02:40:00;;;;;;;3.05;1.40;;;5.90;99.90;;;;;;5084589;28;20040;-74
2021/03/12 02:42:27;;;;;;;2.17;0.98;;;5.90;99.90;;;;;;5086428;28;20039;-73
2021/03/12 02:44:54;;;;;;;2.47;1.27;;;5.90;99.90;;;;;;5086295;28;20031;-73
2021/03/12 02:47:23;;;;;;;2.38;1.10;;;5.90;99.90;;;;;;5084891;28;20389;-72
2021/03/12 02:49:50;;;;;;;3.88;0.70;;;5.90;99.90;;;;;;5085847;28;20040;-73
2021/03/12 02:52:18;;;;;;;3.80;1.60;;;5.90;99.90;;;;;;5085906;28;20183;-73
2021/03/12 02:54:44;;;;;;;2.72;1.08;;;5.90;99.90;;;;;;5085935;28;20081;-74
2021/03/12 02:57:12;;;;;;;1.13;1.02;;;5.90;99.90;;;;;;5084689;28;20025;-73
2021/03/12 02:59:38;;;;;;;6.18;1.17;;;5.90;99.90;;;;;;5085852;28;20020;-73
2021/03/12 03:02:04;;;;;;;5.13;1.77;;;5.90;99.90;;;;;;5085929;28;20059;-72
2021/03/12 03:04:30;;;;;;;1.70;0.68;;;5.90;99.90;;;;;;5085614;28;20098;-73
2021/03/12 03:06:58;;;;;;;2.58;0.90;;;5.90;99.90;;;;;;5085341;28;20060;-73
2021/03/12 03:09:25;;;;;;;10.00;1.67;;;5.90;99.90;;;;;;5085014;28;20132;-72
2021/03/12 03:11:52;;;;;;;1.65;0.57;;;5.90;99.90;;;;;;5085060;28;20028;-73
2021/03/12 03:14:18;;;;;;;4.78;1.45;;;5.90;99.90;;;;;;5085384;28;20028;-71
2021/03/12 03:16:45;;;;;;;7.28;1.80;;;5.90;99.90;;;;;;5085275;28;20024;-74
2021/03/12 03:19:12;;;;;;;1.63;0.95;;;5.90;99.90;;;;;;5084191;28;20040;-73
2021/03/12 03:21:41;;;;;;;2.30;1.25;;;5.90;99.90;;;;;;5083959;28;20025;-74
2021/03/12 03:24:08;;;;;;;8.57;1.30;;;5.90;99.90;;;;;;5083951;28;20020;-74
2021/03/12 03:26:35;;;;;;;6.40;0.98;;;5.90;99.90;;;;;;5085544;28;20032;-72
2021/03/12 03:29:00;;;;;;;2.42;1.30;;;5.80;99.90;;;;;;5083974;28;20035;-73
2021/03/12 03:31:26;;;;;;;5.82;1.65;;;5.80;99.90;;;;;;5085157;28;20048;-72
2021/03/12 03:33:52;;;;;;;0.63;0.60;;;5.80;99.90;;;;;;5083797;28;20029;-72
2021/03/12 03:36:17;;;;;;;8.23;1.88;;;5.90;99.90;;;;;;5084675;28;20036;-73
2021/03/12 03:38:43;;;;;;;5.10;1.63;;;5.80;99.90;;;;;;5083833;28;20033;-71
2021/03/12 03:41:15;;;;;;;5.28;1.77;;;5.80;99.90;;;;;;5084508;28;20389;-75
2021/03/12 03:43:49;;;;;;;1.85;0.90;;;5.80;99.90;;;;;;5079425;28;20039;-74
2021/03/12 03:46:16;;;;;;;4.25;1.17;;;5.80;99.90;;;;;;5082506;28;20123;-72
2021/03/12 03:48:42;;;;;;;1.02;0.80;;;5.80;99.90;;;;;;5085026;28;20029;-74
2021/03/12 03:51:18;;;;;;;6.53;0.98;;;5.80;99.90;;;;;;5082385;28;20096;-75
2021/03/12 03:53:53;;;;;;;3.17;1.00;;;5.80;99.90;;;;;;5078107;28;20475;-72
2021/03/12 03:56:19;;;;;;;12.70;1.98;;;5.80;99.90;;;;;;5083743;28;20028;-74
2021/03/12 03:58:45;;;;;;;2.35;0.77;;;5.80;99.90;;;;;;5082998;28;20074;-73
2021/03/12 04:01:13;;;;;;;5.95;1.67;;;5.90;99.90;;;;;;5084490;28;20032;-72
2021/03/12 04:03:45;;;;;;;1.77;0.68;;;5.80;99.90;;;;;;5084777;28;20020;-72
2021/03/12 04:06:11;;;;;;;14.85;1.70;;;5.80;99.90;;;;;;5083516;28;20117;-73
2021/03/12 04:08:38;;;;;;;2.13;1.00;;;5.80;99.90;;;;;;5083366;28;20044;-72
2021/03/12 04:11:05;;;;;;;1.90;1.08;;;5.70;99.90;;;;;;5084438;28;20125;-73
2021/03/12 04:13:31;;;;;;;7.80;1.67;;;5.70;99.90;;;;;;5083536;28;20029;-74
2021/03/12 04:15:57;;;;;;;0.95;0.80;;;5.70;99.90;;;;;;5083353;28;20033;-72
2021/03/12 04:18:23;;;;;;;0.93;0.57;;;5.70;99.90;;;;;;5084597;28;20029;-73
2021/03/12 04:20:49;;;;;;;10.15;1.15;;;5.70;99.90;;;;;;5084711;28;20055;-74
2021/03/12 04:23:17;;;;;;;1.42;0.73;;;5.60;99.90;;;;;;5084565;28;20033;-72
2021/03/12 04:25:43;;;;;;;4.95;1.15;;;5.70;99.90;;;;;;5084752;28;20035;-74
2021/03/12 04:28:09;;;;;;;8.68;0.95;;;5.70;99.90;;;;;;5083949;28;20048;-75
2021/03/12 04:30:35;;;;;;;2.15;0.80;;;5.70;99.90;;;;;;5084605;28;20051;-73
2021/03/12 04:33:01;;;;;;;8.07;1.50;;;5.70;99.90;;;;;;5084452;28;20020;-74
2021/03/12 04:35:27;;;;;;;7.60;1.40;;;5.70;99.90;;;;;;5084413;28;20056;-74
2021/03/12 04:37:54;;;;;;;6.53;1.30;;;5.70;99.90;;;;;;5084209;28;20035;-76
2021/03/12 04:40:21;;;;;;;8.60;1.23;;;5.70;99.90;;;;;;5083005;28;20056;-74
2021/03/12 04:42:47;;;;;;;3.83;1.50;;;5.70;99.90;;;;;;5083024;28;20035;-74
2021/03/12 04:45:14;;;;;;;4.68;1.60;;;5.70;99.90;;;;;;5084566;28;20035;-72
2021/03/12 04:47:40;;;;;;;9.70;1.75;;;5.70;99.90;;;;;;5086396;28;20032;-71
2021/03/12 04:50:09;;;;;;;8.10;1.75;;;5.70;99.90;;;;;;5088472;28;20047;-71
2021/03/12 04:52:36;;;;;;;6.43;1.40;;;5.70;99.90;;;;;;5088366;28;20027;-71
2021/03/12 04:55:02;;;;;;;7.88;1.63;;;5.70;99.90;;;;;;5088415;28;20066;-72
2021/03/12 04:57:28;;;;;;;3.25;0.98;;;5.60;99.90;;;;;;5088025;28;20046;-72
2021/03/12 04:59:56;;;;;;;5.53;1.73;;;5.60;99.90;;;;;;5088126;28;20476;-71
2021/03/12 05:02:22;;;;;;;3.60;1.95;;;5.70;99.90;;;;;;5087907;28;20051;-73
2021/03/12 05:04:52;;;;;;;12.38;1.17;;;5.60;99.90;;;;;;5087949;28;20076;-70
2021/03/12 05:07:20;;;;;;;1.13;0.80;;;5.60;99.90;;;;;;5087807;28;20028;-72
2021/03/12 05:09:46;;;;;;;2.92;0.70;;;5.70;99.90;;;;;;5085773;28;20041;-74
2021/03/12 05:12:12;;;;;;;2.97;1.25;;;5.60;99.90;;;;;;5086571;28;20031;-74
2021/03/12 05:14:37;;;;;;;3.33;1.25;;;5.60;99.90;;;;;;5086614;28;20055;-73
2021/03/12 05:17:03;;;;;;;17.05;1.75;;;5.60;99.90;;;;;;5088047;28;20058;-73
2021/03/12 05:19:29;;;;;;;17.80;1.25;;;5.60;99.90;;;;;;5086184;28;20048;-72
2021/03/12 05:21:55;;;;;;;6.88;1.83;;;5.60;99.90;;;;;;5086290;28;20029;-72
2021/03/12 05:24:21;;;;;;;4.90;1.67;;;5.50;99.90;;;;;;5087706;28;20025;-73
2021/03/12 05:26:47;;;;;;;6.85;1.30;;;5.60;99.90;;;;;;5087757;28;20047;-74
2021/03/12 05:29:13;;;;;;;2.42;1.30;;;5.50;99.90;;;;;;5086244;28;20025;-73
2021/03/12 05:31:40;;;;;;;2.50;1.27;;;5.60;99.90;;;;;;5085497;28;20040;-73
2021/03/12 05:34:06;;;;;;;10.07;1.58;;;5.60;99.90;;;;;;5087600;28;20060;-73
2021/03/12 05:36:31;;;;;;;2.10;0.95;;;5.60;99.90;;;;;;5087420;28;20469;-72
2021/03/12 05:38:57;;;;;;;3.95;1.55;;;5.60;99.90;;;;;;5086004;28;20029;-74
2021/03/12 05:41:23;;;;;;;4.50;1.38;;;5.60;99.90;;;;;;5087072;28;20035;-74
2021/03/12 05:43:49;;;;;;;3.08;1.30;;;5.60;99.90;;;;;;5085914;28;20032;-72
2021/03/12 05:46:15;;;;;;;7.88;1.58;;;5.50;99.90;;;;;;5086847;28;20036;-73
2021/03/12 05:48:44;;;;;;;3.10;1.08;;;5.50;99.90;;;;;;5086764;28;20077;-74
2021/03/12 05:51:10;;;;;;;7.13;1.38;;;5.50;99.90;;;;;;5087108;28;20060;-74
2021/03/12 05:53:36;;;;;;;2.50;1.25;;;5.50;99.90;;;;;;5087241;28;20092;-73
2021/03/12 05:56:03;;;;;;;5.35;1.27;;;5.50;99.90;;;;;;5087320;28;20435;-73
2021/03/12 05:58:29;;;;;;;2.95;1.55;;;5.50;99.90;;;;;;5086501;28;20037;-71
2021/03/12 06:00:54;;;;;;;2.88;1.27;;;5.50;99.90;;;;;;5087559;28;20032;-74
2021/03/12 06:03:20;;;;;;;4.30;2.00;;;5.50;99.90;;;;;;5088485;28;20020;-75
2021/03/12 06:05:49;;;;;;;4.47;1.50;;;5.50;99.90;;;;;;5087726;28;20073;-74
2021/03/12 06:08:15;;;;;;;4.32;0.77;;;5.60;99.90;;;;;;5087554;28;20032;-76
2021/03/12 06:10:42;;;;;;;3.38;1.02;;;5.50;99.90;;;;;;5086381;28;20052;-75
2021/03/12 06:13:07;;;;;;;4.53;0.77;;;5.50;99.90;;;;;;5088441;28;20024;-73
2021/03/12 06:15:39;;;;;;;6.60;1.48;;;5.50;99.90;;;;;;5086862;28;20484;-74
2021/03/12 06:18:16;;;;;;;0.25;0.20;;;5.50;99.90;;;;;;5085434;28;20128;-74
2021/03/12 06:20:43;;;;;;;6.88;1.35;;;5.50;99.90;;;;;;5085520;28;20036;-74
2021/03/12 06:23:10;;;;;;;2.60;1.02;;;5.50;99.90;;;;;;5085276;28;20033;-75
2021/03/12 06:25:36;;;;;;;6.53;1.30;;;5.50;99.90;;;;;;5086337;28;20037;-75
2021/03/12 06:28:16;;;;;;;2.90;1.23;;;5.50;99.90;;;;;;5083425;28;20419;-75
2021/03/12 06:30:42;;;;;;;7.78;0.90;;;5.50;99.90;;;;;;5083586;28;20036;-73
2021/03/12 06:33:23;;;;;;;6.50;1.27;;;5.50;99.90;;;;;;5084762;28;20055;-73
2021/03/12 06:35:48;;;;;;;3.72;0.70;;;5.50;99.90;;;;;;5086775;28;20052;-73
2021/03/12 06:38:14;;;;;;;3.35;1.63;;;5.50;99.90;;;;;;5085954;28;20047;-74
2021/03/12 06:40:40;;;;;;;0.90;0.63;;;5.40;99.90;;;;;;5081960;28;20021;-74
2021/03/12 06:43:13;;;;;;;4.22;1.25;;;5.50;99.90;;;;;;5067371;28;20075;-72
2021/03/12 06:45:42;;;;;;;0.65;0.50;;;5.50;99.90;;;;;;5066985;28;20108;-74
2021/03/12 06:48:33;;;;;;;3.10;1.23;;;5.50;99.90;;;;;;5067249;28;20054;-74
2021/03/12 06:51:03;;;;;;;1.65;0.63;;;5.50;99.90;;;;;;5066944;28;20444;-75
2021/03/12 06:53:35;;;;;;;6.45;1.45;;;5.50;99.90;;;;;;5066459;28;20045;-75
2021/03/12 06:56:07;;;;;;;4.45;1.20;;;5.50;99.90;;;;;;5066476;28;20023;-72
2021/03/12 06:58:34;;;;;;;2.42;0.82;;;5.50;99.90;;;;;;5077060;28;20099;-74
2021/03/12 07:01:01;;;;;;;3.85;0.60;;;5.40;99.90;;;;;;5086588;28;20044;-74
2021/03/12 07:03:27;;;;;;;3.15;1.00;;;5.60;99.90;;;;;;5086526;28;20033;-75
2021/03/12 07:05:57;;;;;;;1.17;0.30;;;5.60;99.90;;;;;;5084670;28;20103;-74
2021/03/12 07:08:47;;;;;;;3.50;1.33;;;5.70;99.90;;;;;;5084648;28;20021;-73
2021/03/12 07:11:17;;;;;;;4.82;1.17;;;5.70;99.90;;;;;;5085151;28;20048;-75
2021/03/12 07:13:42;;;;;;;1.85;0.85;;;5.70;99.90;;;;;;5086311;28;20028;-73
2021/03/12 07:16:09;;;;;;;1.55;0.90;;;5.80;99.90;;;;;;5083644;28;20036;-76
2021/03/12 07:18:34;;;;;;;2.60;0.90;;;5.90;99.90;;;;;;5086007;28;20020;-73
2021/03/12 07:21:02;;;;;;;2.78;1.15;;;6.00;99.90;;;;;;5085296;28;20032;-75
2021/03/12 07:23:29;;;;;;;4.05;1.50;;;6.00;99.90;;;;;;5084530;28;20028;-72
2021/03/12 07:25:55;;;;;;;6.03;1.70;;;6.10;99.90;;;;;;5085817;28;20032;-74
2021/03/12 07:28:25;;;;;;;1.77;0.45;;;6.10;99.90;;;;;;5084656;28;20046;-73
2021/03/12 07:30:54;;;;;;;4.32;0.90;;;6.10;99.90;;;;;;5080872;28;20041;-74
2021/03/12 07:33:25;;;;;;;3.92;1.40;;;6.10;99.90;;;;;;5065928;28;20052;-75
2021/03/12 07:35:53;;;;;;;0.90;0.63;;;6.10;99.90;;;;;;5084176;28;20033;-72
2021/03/12 07:38:22;;;;;;;5.68;1.13;;;6.20;99.90;;;;;;5085680;28;20024;-73
2021/03/12 07:40:47;;;;;;;4.53;1.63;;;6.20;99.90;;;;;;5085324;28;20063;-74
2021/03/12 07:43:14;;;;;;;4.90;0.60;;;6.30;99.90;;;;;;5085312;28;20110;-75
2021/03/12 07:45:42;;;;;;;3.15;0.93;;;6.30;99.90;;;;;;5080881;28;20064;-76
2021/03/12 07:48:09;;;;;;;1.00;0.73;;;6.30;99.90;;;;;;5065379;28;20025;-74
2021/03/12 07:50:38;;;;;;;2.88;1.25;;;6.30;99.90;;;;;;5065280;28;20040;-74
2021/03/12 07:53:05;;;;;;;1.95;1.50;;;6.30;99.90;;;;;;5065357;28;20047;-74
2021/03/12 07:55:37;;;;;;;11.40;0.90;;;6.40;99.90;;;;;;5063757;28;20085;-74
2021/03/12 07:58:08;;;;;;;1.77;0.95;;;6.40;99.90;;;;;;5065360;28;20033;-75
2021/03/12 08:00:52;;;;;;;2.58;1.33;;;6.50;99.90;;;;;;5063899;28;20031;-74
2021/03/12 08:03:28;;;;;;;6.38;1.52;;;6.50;99.90;;;;;;5064870;28;20029;-73
2021/03/12 08:05:54;;;;;;;4.53;1.15;;;6.70;99.90;;;;;;5065051;28;20068;-74
2021/03/12 08:08:33;;;;;;;6.90;0.75;;;6.80;99.90;;;;;;5082387;28;20017;-73
2021/03/12 08:11:44;;;;;;;7.72;1.77;;;6.90;99.90;;;;;;5084415;28;20059;-74
2021/03/12 08:14:09;;;;;;;18.27;1.90;;;7.10;99.90;;;;;;5082653;28;20051;-73
2021/03/12 08:16:36;;;;;;;9.27;1.58;;;7.30;99.90;;;;;;5083721;28;20029;-75
2021/03/12 08:19:33;;;;;;;3.63;1.25;;;7.30;99.90;;;;;;5084852;28;20025;-72
2021/03/12 08:22:00;;;;;;;6.78;2.35;;;7.40;99.90;;;;;;5084271;28;20063;-72
2021/03/12 08:24:45;;;;;;;5.20;2.45;;;7.70;99.90;;;;;;5084437;28;20052;-72
2021/03/12 08:27:11;;;;;;;1.92;1.08;;;7.80;99.90;;;;;;5083482;28;20033;-72
2021/03/12 08:29:38;;;;;;;11.63;1.85;;;7.70;99.90;;;;;;5083693;28;20025;-74
2021/03/12 08:32:36;;;;;;;4.05;1.38;;;7.70;99.90;;;;;;5083251;28;20036;-74
2021/03/12 08:35:04;;;;;;;5.57;1.20;;;7.60;99.90;;;;;;5061086;28;20032;-72
2021/03/12 08:37:29;;;;;;;3.10;1.38;;;7.60;99.90;;;;;;5062847;28;20025;-76
2021/03/12 08:40:19;;;;;;;4.07;1.40;;;7.50;99.90;;;;;;5064032;28;20056;-74
2021/03/12 08:43:06;;;;;;;6.05;1.95;;;7.30;99.90;;;;;;5054885;28;20448;-73
2021/03/12 08:45:42;;;;;;;5.45;2.33;;;7.20;99.90;;;;;;5064074;28;20025;-73
2021/03/12 08:48:11;;;;;;;2.95;1.38;;;7.10;99.90;;;;;;5063139;28;20044;-73
2021/03/12 08:50:50;;;;;;;3.85;2.10;;;7.00;99.90;;;;;;5070125;28;20036;-73
2021/03/12 08:53:16;;;;;;;11.07;2.53;;;7.00;99.90;;;;;;5083980;28;20071;-72
2021/03/12 08:55:47;;;;;;;2.50;1.48;;;7.00;99.90;;;;;;5083452;28;20033;-74
2021/03/12 08:58:27;;;;;;;3.25;1.60;;;7.00;99.90;;;;;;5078723;28;20032;-74
2021/03/12 09:00:58;;;;;;;3.08;1.92;;;7.00;99.90;;;;;;5079648;28;20033;-74
2021/03/12 09:03:27;;;;;;;6.57;1.40;;;7.00;99.90;;;;;;5084075;28;20549;-73
2021/03/12 09:06:07;;;;;;;7.55;1.30;;;7.00;99.90;;;;;;5080809;28;20086;-70
2021/03/12 09:08:36;;;;;;;8.98;1.85;;;7.00;99.90;;;;;;5084266;28;20055;-72
2021/03/12 09:11:04;;;;;;;3.85;1.75;;;7.10;99.90;;;;;;5082899;28;20060;-72
2021/03/12 09:13:35;;;;;;;3.95;1.48;;;7.20;99.90;;;;;;5084748;28;20078;-73
2021/03/12 09:16:04;;;;;;;5.30;1.67;;;7.40;99.90;;;;;;5084390;28;20025;-75
2021/03/12 09:18:31;;;;;;;7.75;1.88;;;7.50;99.90;;;;;;5078774;28;20096;-75
2021/03/12 09:21:08;;;;;;;2.55;1.55;;;7.50;99.90;;;;;;5082809;28;20025;-74
2021/03/12 09:23:35;;;;;;;11.10;1.83;;;7.70;99.90;;;;;;5084640;28;20020;-71
2021/03/12 09:26:02;;;;;;;5.20;2.42;;;7.90;99.90;;;;;;5076963;28;20086;-77
2021/03/12 09:28:29;;;;;;;5.18;1.60;;;8.10;99.90;;;;;;5068988;28;20033;-73
2021/03/12 09:30:56;;;;;;;8.68;1.92;;;8.30;99.90;;;;;;5062792;28;20063;-74
2021/03/12 09:33:44;;;;;;;2.55;1.42;;;8.40;99.90;;;;;;5073290;28;20055;-76
2021/03/12 09:36:31;;;;;;;2.28;1.38;;;8.40;99.90;;;;;;5067411;28;20029;-76
2021/03/12 09:39:21;;;;;;;2.17;1.15;;;8.50;99.90;;;;;;5083438;28;20918;-74
2021/03/12 09:41:55;;;;;;;3.20;1.55;;;8.50;99.90;;;;;;5082813;28;20025;-75
2021/03/12 09:44:22;;;;;;;5.27;1.67;;;8.60;99.90;;;;;;5066933;28;20081;-75
2021/03/12 09:46:50;;;;;;;7.28;1.60;;;8.60;99.90;;;;;;5067180;28;20331;-76
2021/03/12 09:49:20;;;;;;;9.48;1.50;;;8.70;99.90;;;;;;5070280;28;20024;-76
2021/03/12 09:51:47;;;;;;;8.27;1.85;;;8.70;99.90;;;;;;5086999;28;20044;-75
2021/03/12 09:54:15;;;;;;;6.97;1.45;;;8.50;99.90;;;;;;5080366;28;20021;-76
2021/03/12 09:56:46;;;;;;;8.10;1.63;;;8.50;99.90;;;;;;5082555;28;20124;-73
2021/03/12 09:59:12;;;;;;;8.75;1.67;;;8.50;99.90;;;;;;5068169;28;20018;-77
2021/03/12 10:01:40;;;;;;;1.63;1.08;;;8.50;99.90;;;;;;5074311;28;20050;-74
2021/03/12 10:04:29;;;;;;;6.05;1.90;;;8.60;99.90;;;;;;5085471;28;20040;-74
2021/03/12 10:06:59;;;;;;;12.13;1.80;;;8.70;99.90;;;;;;5083736;28;20028;-74
2021/03/12 10:09:26;;;;;;;17.77;2.28;;;8.90;99.90;;;;;;5072950;28;20044;-74
2021/03/12 10:11:53;;;;;;;7.78;1.42;;;9.00;99.90;;;;;;5086899;28;20096;-73
2021/03/12 10:14:32;;;;;;;5.88;1.15;;;9.10;99.90;;;;;;5086908;28;20017;-74
2021/03/12 10:17:23;;;;;;;3.90;1.67;;;9.10;99.90;;;;;;5082319;28;20056;-75
2021/03/12 10:19:50;;;;;;;7.28;1.38;;;9.10;99.90;;;;;;5066694;28;20033;-78
2021/03/12 10:22:37;;;;;;;4.68;1.20;;;9.00;99.90;;;;;;5066717;28;20112;-75
2021/03/12 10:25:16;;;;;;;8.43;1.95;;;8.80;99.90;;;;;;5085041;28;20401;-74
2021/03/12 10:27:49;;;;;;;9.20;1.02;;;8.80;99.90;;;;;;5086908;28;20024;-75
2021/03/12 10:30:27;;;;;;;3.05;1.13;;;8.80;99.90;;;;;;5085021;28;20111;-74
2021/03/12 10:33:08;;;;;;;1.85;0.85;;;8.90;99.90;;;;;;5080170;28;20029;-76
2021/03/12 10:35:46;;;;;;;14.27;1.52;;;9.00;99.90;;;;;;5071301;28;20473;-75
2021/03/12 10:38:21;;;;;;;5.70;1.55;;;9.00;99.90;;;;;;5072299;28;20029;-76
2021/03/12 10:40:56;;;;;;;4.90;1.30;;;8.80;99.90;;;;;;5083543;28;20037;-73
2021/03/12 10:43:24;;;;;;;;;;;8.80;99.90;;;;;;5084329;28;20029;-75
2021/03/12 10:45:55;;;;;;;2.45;1.05;;;8.90;99.90;;;;;;5085101;28;19909;-75
2021/03/12 10:48:26;;;;;;;2.67;1.15;;;9.00;99.90;;;;;;5085615;28;20028;-74
2021/03/12 10:50:54;;;;;;;2.08;0.60;;;9.10;99.90;;;;;;5083335;28;20055;-76
2021/03/12 10:53:20;;;;;;;5.15;1.52;;;9.30;99.90;;;;;;5078434;28;20052;-75
2021/03/12 10:55:49;;;;;;;7.85;1.00;;;9.30;99.90;;;;;;5065084;28;20028;-74
2021/03/12 10:58:22;;;;;;;4.90;1.20;;;9.30;99.90;;;;;;5082624;28;20029;-73
2021/03/12 11:01:09;;;;;;;3.83;0.93;;;9.20;99.90;;;;;;5083572;28;20041;-75
2021/03/12 11:03:35;;;;;;;8.85;1.02;;;9.10;99.90;;;;;;5077509;28;20094;-76
2021/03/12 11:06:00;;;;;;;2.45;0.82;;;9.00;99.90;;;;;;5068980;28;20553;-74
2021/03/12 11:08:27;;;;;;;1.35;0.85;;;9.00;99.90;;;;;;5082421;28;20124;-74
2021/03/12 11:10:55;;;;;;;4.07;1.27;;;9.10;99.90;;;;;;5083156;28;20056;-75
2021/03/12 11:13:21;;;;;;;15.40;1.77;;;9.00;99.90;;;;;;5084940;28;20025;-74
2021/03/12 11:15:46;;;;;;;2.67;0.85;;;9.00;99.90;;;;;;5083307;28;20070;-77
2021/03/12 11:18:13;;;;;;;3.60;1.15;;;9.00;99.90;;;;;;5083525;28;20088;-75
2021/03/12 11:20:41;;;;;;;5.13;1.45;;;9.00;99.90;;;;;;5083097;28;20077;-76
2021/03/12 11:23:10;;;;;;;5.38;0.80;;;9.00;99.90;;;;;;5083561;28;20029;-76
2021/03/12 11:25:40;;;;;;;2.65;0.82;;;9.00;99.90;;;;;;5085014;28;20078;-74
2021/03/12 11:28:08;;;;;;;2.28;0.73;;;9.10;99.90;;;;;;5083561;28;20029;-76
2021/03/12 11:30:34;;;;;;;1.48;0.70;;;9.30;99.90;;;;;;5084424;28;20400;-74
2021/03/12 11:33:00;;;;;;;3.70;1.58;;;9.60;99.90;;;;;;5082871;28;20040;-75
2021/03/12 11:35:25;;;;;;;3.72;0.95;;;9.90;99.90;;;;;;5084461;28;20051;-75
2021/03/12 11:37:51;;;;;;;1.80;0.88;;;10.00;99.90;;;;;;5082369;28;20092;-73
2021/03/12 11:40:17;;;;;;;8.88;1.55;;;10.00;99.90;;;;;;5084421;28;20056;-73
2021/03/12 11:42:43;;;;;;;5.35;1.60;;;9.90;99.90;;;;;;5083419;28;20060;-71
2021/03/12 11:45:14;;;;;;;5.72;1.60;;;9.70;99.90;;;;;;5084806;28;20031;-75
2021/03/12 11:47:41;;;;;;;8.77;1.70;;;9.60;99.90;;;;;;5084714;28;20060;-72
2021/03/12 11:50:17;;;;;;;6.93;1.42;;;9.40;99.90;;;;;;5083092;28;20051;-74
2021/03/12 11:52:47;;;;;;;5.35;1.60;;;9.30;99.90;;;;;;5083029;28;20116;-72
2021/03/12 11:55:14;;;;;;;4.28;1.65;;;9.20;99.90;;;;;;5084412;28;20039;-73
2021/03/12 11:57:41;;;;;;;2.72;0.95;;;9.20;99.90;;;;;;5083696;28;20115;-74
2021/03/12 12:00:12;;;;;;;2.95;1.27;;;9.20;99.90;;;;;;5084277;28;20025;-72
2021/03/12 12:02:39;;;;;;;5.78;1.63;;;9.20;99.90;;;;;;5084247;28;20113;-75
2021/03/12 12:05:08;;;;;;;2.78;1.50;;;9.20;99.90;;;;;;5084233;28;20044;-75
2021/03/12 12:07:34;;;;;;;9.50;2.05;;;9.20;99.90;;;;;;5083964;28;20039;-73
2021/03/12 12:10:00;;;;;;;11.65;1.55;;;9.40;99.90;;;;;;5081654;28;20052;-73
2021/03/12 12:12:26;;;;;;;10.70;1.95;;;9.50;99.90;;;;;;5082358;28;20054;-72
2021/03/12 12:14:52;;;;;;;3.22;1.20;;;9.60;99.90;;;;;;5083908;28;20054;-74
2021/03/12 12:17:18;;;;;;;4.70;1.40;;;9.70;99.90;;;;;;5082337;28;20025;-73
2021/03/12 12:19:46;;;;;;;6.13;1.70;;;9.80;99.90;;;;;;5083658;28;20058;-77
2021/03/12 12:22:14;;;;;;;5.63;1.77;;;9.80;99.90;;;;;;5081487;28;20048;-74
2021/03/12 12:24:41;;;;;;;2.47;1.27;;;9.80;99.90;;;;;;5082501;28;20028;-72
2021/03/12 12:27:09;;;;;;;8.45;2.20;;;9.80;99.90;;;;;;5083915;28;20032;-75
2021/03/12 12:29:34;;;;;;;3.33;1.30;;;10.00;99.90;;;;;;5082154;28;20073;-73
2021/03/12 12:32:00;;;;;;;1.40;0.65;;;10.20;99.90;;;;;;5082289;28;20040;-72
2021/03/12 12:34:26;;;;;;;6.40;1.55;;;10.40;99.90;;;;;;5083625;28;20099;-74
2021/03/12 12:36:53;;;;;;;2.50;0.93;;;10.40;99.90;;;;;;5083582;28;20016;-71
2021/03/12 12:39:19;;;;;;;2.00;0.80;;;10.40;99.90;;;;;;5083599;28;20024;-75
2021/03/12 12:41:47;;;;;;;2.60;1.00;;;10.30;99.90;;;;;;5083302;28;20017;-74
2021/03/12 12:44:15;;;;;;;4.13;1.70;;;10.20;99.90;;;;;;5083582;28;20032;-73
2021/03/12 12:46:42;;;;;;;3.80;1.15;;;10.00;99.90;;;;;;5082665;28;20031;-75
2021/03/12 12:49:13;;;;;;;5.93;1.20;;;9.90;99.90;;;;;;5083584;28;20036;-72
2021/03/12 12:51:40;;;;;;;4.07;1.20;;;9.90;99.90;;;;;;5082026;28;20052;-73
2021/03/12 12:54:05;;;;;;;6.85;1.70;;;9.90;99.90;;;;;;5083727;28;20033;-74
2021/03/12 12:56:31;;;;;;;2.22;0.93;;;9.90;99.90;;;;;;5082248;28;20031;-73
2021/03/12 12:58:58;;;;;;;2.10;0.80;;;10.00;99.90;;;;;;5083380;28;20037;-74
2021/03/12 13:01:24;;;;;;;1.17;0.82;;;9.80;99.90;;;;;;5083214;28;20029;-74
2021/03/12 13:03:50;;;;;;;1.73;0.93;;;9.60;99.90;;;;;;5081803;28;20035;-72
2021/03/12 13:06:16;;;;;;;1.27;1.17;;;9.20;99.90;;;;;;5082238;28;20024;-75